sensor_id;sensor_type;location;lat;lon;timestamp;temperature;humidity
31729;DHT22;18309;43.658;1.312;2023-04-30T00:00:21;17.10;99.90
31729;DHT22;18309;43.658;1.312;2023-04-30T00:02:47;17.00;99.90
31729;DHT22;18309;43.658;1.312;2023-04-30T00:05:13;17.00;99.90
31729;DHT22;18309;43.658;1.312;2023-04-30T00:07:38;17.00;99.90
31729;DHT22;18309;43.658;1.312;2023-04-30T00:10:11;17.00;99.90
31729;DHT22;18309;43.658;1.312;2023-04-30T00:12:37;16.90;99.90
31729;DHT22;18309;43.658;1.312;2023-04-30T00:15:04;17.00;99.90
31729;DHT22;18309;43.658;1.312;2023-04-30T00:17:30;16.90;99.90
31729;DHT22;18309;43.658;1.312;2023-04-30T00:19:56;17.00;99.90
31729;DHT22;18309;43.658;1.312;2023-04-30T00:22:21;16.90;99.90
31729;DHT22;18309;43.658;1.312;2023-04-30T00:24:47;16.90;99.90
31729;DHT22;18309;43.658;1.312;2023-04-30T00:27:13;16.90;99.90
31729;DHT22;18309;43.658;1.312;2023-04-30T00:29:38;16.90;99.90
31729;DHT22;18309;43.658;1.312;2023-04-30T00:32:04;16.90;99.90
31729;DHT22;18309;43.658;1.312;2023-04-30T00:34:30;16.90;99.90
31729;DHT22;18309;43.658;1.312;2023-04-30T00:36:56;16.90;99.90
31729;DHT22;18309;43.658;1.312;2023-04-30T00:39:22;16.90;99.90
31729;DHT22;18309;43.658;1.312;2023-04-30T00:41:48;16.90;99.90
31729;DHT22;18309;43.658;1.312;2023-04-30T00:44:14;16.80;99.90
31729;DHT22;18309;43.658;1.312;2023-04-30T00:46:39;16.90;99.90
31729;DHT22;18309;43.658;1.312;2023-04-30T00:49:05;16.90;99.90
31729;DHT22;18309;43.658;1.312;2023-04-30T00:51:32;16.90;99.90
31729;DHT22;18309;43.658;1.312;2023-04-30T00:54:00;16.90;99.90
31729;DHT22;18309;43.658;1.312;2023-04-30T00:56:28;16.80;99.90
31729;DHT22;18309;43.658;1.312;2023-04-30T00:58:55;16.80;99.90
31729;DHT22;18309;43.658;1.312;2023-04-30T01:01:26;16.80;99.90
31729;DHT22;18309;43.658;1.312;2023-04-30T01:03:53;16.80;99.90
31729;DHT22;18309;43.658;1.312;2023-04-30T01:06:19;16.80;99.90
31729;DHT22;18309;43.658;1.312;2023-04-30T01:08:45;16.70;99.90
31729;DHT22;18309;43.658;1.312;2023-04-30T01:16:26;16.80;99.90
31729;DHT22;18309;43.658;1.312;2023-04-30T01:19:04;16.80;99.90
31729;DHT22;18309;43.658;1.312;2023-04-30T01:21:31;16.70;99.90
31729;DHT22;18309;43.658;1.312;2023-04-30T01:29:34;16.70;99.90
31729;DHT22;18309;43.658;1.312;2023-04-30T01:32:01;16.70;99.90
31729;DHT22;18309;43.658;1.312;2023-04-30T01:34:28;16.60;99.90
31729;DHT22;18309;43.658;1.312;2023-04-30T01:37:03;16.60;99.90
31729;DHT22;18309;43.658;1.312;2023-04-30T01:39:45;16.60;99.90
31729;DHT22;18309;43.658;1.312;2023-04-30T01:42:20;16.60;99.90
31729;DHT22;18309;43.658;1.312;2023-04-30T01:48:27;16.60;99.90
31729;DHT22;18309;43.658;1.312;2023-04-30T01:53:40;16.60;99.90
31729;DHT22;18309;43.658;1.312;2023-04-30T01:56:11;16.50;99.90
31729;DHT22;18309;43.658;1.312;2023-04-30T01:58:40;16.50;99.90
31729;DHT22;18309;43.658;1.312;2023-04-30T02:01:07;16.50;99.90
31729;DHT22;18309;43.658;1.312;2023-04-30T02:03:48;16.50;99.90
31729;DHT22;18309;43.658;1.312;2023-04-30T02:06:14;16.50;99.90
31729;DHT22;18309;43.658;1.312;2023-04-30T02:08:40;16.50;99.90
31729;DHT22;18309;43.658;1.312;2023-04-30T02:11:05;16.50;99.90
31729;DHT22;18309;43.658;1.312;2023-04-30T02:13:31;16.50;99.90
31729;DHT22;18309;43.658;1.312;2023-04-30T02:15:57;16.50;99.90
31729;DHT22;18309;43.658;1.312;2023-04-30T02:18:22;16.50;99.90
31729;DHT22;18309;43.658;1.312;2023-04-30T02:20:48;16.40;99.90
31729;DHT22;18309;43.658;1.312;2023-04-30T02:23:15;16.50;99.90
31729;DHT22;18309;43.658;1.312;2023-04-30T02:25:40;16.50;99.90
31729;DHT22;18309;43.658;1.312;2023-04-30T02:28:06;16.40;99.90
31729;DHT22;18309;43.658;1.312;2023-04-30T02:30:32;16.40;99.90
31729;DHT22;18309;43.658;1.312;2023-04-30T02:32:57;16.40;99.90
31729;DHT22;18309;43.658;1.312;2023-04-30T02:35:23;16.40;99.90
31729;DHT22;18309;43.658;1.312;2023-04-30T02:37:49;16.40;99.90
31729;DHT22;18309;43.658;1.312;2023-04-30T02:40:15;16.40;99.90
31729;DHT22;18309;43.658;1.312;2023-04-30T02:42:41;16.40;99.90
31729;DHT22;18309;43.658;1.312;2023-04-30T02:45:06;16.40;99.90
31729;DHT22;18309;43.658;1.312;2023-04-30T02:47:32;16.30;99.90
31729;DHT22;18309;43.658;1.312;2023-04-30T02:49:58;16.40;99.90
31729;DHT22;18309;43.658;1.312;2023-04-30T02:52:24;16.30;99.90
31729;DHT22;18309;43.658;1.312;2023-04-30T02:54:50;16.30;99.90
31729;DHT22;18309;43.658;1.312;2023-04-30T02:57:16;16.30;99.90
31729;DHT22;18309;43.658;1.312;2023-04-30T02:59:41;16.30;99.90
31729;DHT22;18309;43.658;1.312;2023-04-30T03:02:10;16.30;99.90
31729;DHT22;18309;43.658;1.312;2023-04-30T03:04:36;16.30;99.90
31729;DHT22;18309;43.658;1.312;2023-04-30T03:07:02;16.30;99.90
31729;DHT22;18309;43.658;1.312;2023-04-30T03:09:30;16.30;99.90
31729;DHT22;18309;43.658;1.312;2023-04-30T03:11:56;16.30;99.90
31729;DHT22;18309;43.658;1.312;2023-04-30T03:14:22;16.20;99.90
31729;DHT22;18309;43.658;1.312;2023-04-30T03:16:48;16.20;99.90
31729;DHT22;18309;43.658;1.312;2023-04-30T03:19:13;16.30;99.90
31729;DHT22;18309;43.658;1.312;2023-04-30T03:21:39;16.20;99.90
31729;DHT22;18309;43.658;1.312;2023-04-30T03:24:05;16.20;99.90
31729;DHT22;18309;43.658;1.312;2023-04-30T03:26:31;16.20;99.90
31729;DHT22;18309;43.658;1.312;2023-04-30T03:28:57;16.20;99.90
31729;DHT22;18309;43.658;1.312;2023-04-30T03:31:22;16.20;99.90
31729;DHT22;18309;43.658;1.312;2023-04-30T03:33:48;16.20;99.90
31729;DHT22;18309;43.658;1.312;2023-04-30T03:36:14;16.20;99.90
31729;DHT22;18309;43.658;1.312;2023-04-30T03:38:40;16.30;99.90
31729;DHT22;18309;43.658;1.312;2023-04-30T03:41:07;16.20;99.90
31729;DHT22;18309;43.658;1.312;2023-04-30T03:43:32;16.20;99.90
31729;DHT22;18309;43.658;1.312;2023-04-30T03:45:58;16.20;99.90
31729;DHT22;18309;43.658;1.312;2023-04-30T03:48:24;16.20;99.90
31729;DHT22;18309;43.658;1.312;2023-04-30T03:50:50;16.20;99.90
31729;DHT22;18309;43.658;1.312;2023-04-30T03:53:15;16.20;99.90
31729;DHT22;18309;43.658;1.312;2023-04-30T03:55:41;16.20;99.90
31729;DHT22;18309;43.658;1.312;2023-04-30T03:58:07;16.20;99.90
31729;DHT22;18309;43.658;1.312;2023-04-30T04:00:33;16.20;99.90
31729;DHT22;18309;43.658;1.312;2023-04-30T04:02:59;16.20;99.90
31729;DHT22;18309;43.658;1.312;2023-04-30T04:05:24;16.20;99.90
31729;DHT22;18309;43.658;1.312;2023-04-30T04:07:50;16.20;99.90
31729;DHT22;18309;43.658;1.312;2023-04-30T04:10:16;16.20;99.90
31729;DHT22;18309;43.658;1.312;2023-04-30T04:12:42;16.20;99.90
31729;DHT22;18309;43.658;1.312;2023-04-30T04:15:08;16.20;99.90
31729;DHT22;18309;43.658;1.312;2023-04-30T04:17:34;16.20;99.90
31729;DHT22;18309;43.658;1.312;2023-04-30T04:20:00;16.10;99.90
31729;DHT22;18309;43.658;1.312;2023-04-30T04:22:25;16.10;99.90
31729;DHT22;18309;43.658;1.312;2023-04-30T04:24:51;16.10;99.90
31729;DHT22;18309;43.658;1.312;2023-04-30T04:27:17;16.10;99.90
31729;DHT22;18309;43.658;1.312;2023-04-30T04:29:43;16.00;99.90
31729;DHT22;18309;43.658;1.312;2023-04-30T04:32:08;16.10;99.90
31729;DHT22;18309;43.658;1.312;2023-04-30T04:34:34;16.10;99.90
31729;DHT22;18309;43.658;1.312;2023-04-30T04:37:00;16.10;99.90
31729;DHT22;18309;43.658;1.312;2023-04-30T04:39:26;16.00;99.90
31729;DHT22;18309;43.658;1.312;2023-04-30T04:41:52;16.10;99.90
31729;DHT22;18309;43.658;1.312;2023-04-30T04:44:18;16.00;99.90
31729;DHT22;18309;43.658;1.312;2023-04-30T04:46:43;16.10;99.90
31729;DHT22;18309;43.658;1.312;2023-04-30T04:49:10;16.10;99.90
31729;DHT22;18309;43.658;1.312;2023-04-30T04:51:37;16.00;99.90
31729;DHT22;18309;43.658;1.312;2023-04-30T04:54:04;16.10;99.90
31729;DHT22;18309;43.658;1.312;2023-04-30T04:56:30;16.10;99.90
31729;DHT22;18309;43.658;1.312;2023-04-30T04:58:57;16.00;99.90
31729;DHT22;18309;43.658;1.312;2023-04-30T05:01:23;16.00;99.90
31729;DHT22;18309;43.658;1.312;2023-04-30T05:03:49;16.00;99.90
31729;DHT22;18309;43.658;1.312;2023-04-30T05:06:15;16.00;99.90
31729;DHT22;18309;43.658;1.312;2023-04-30T05:08:41;16.00;99.90
31729;DHT22;18309;43.658;1.312;2023-04-30T05:11:06;16.00;99.90
31729;DHT22;18309;43.658;1.312;2023-04-30T05:13:32;16.00;99.90
31729;DHT22;18309;43.658;1.312;2023-04-30T05:15:58;16.00;99.90
31729;DHT22;18309;43.658;1.312;2023-04-30T05:18:23;16.00;99.90
31729;DHT22;18309;43.658;1.312;2023-04-30T05:20:49;16.00;99.90
31729;DHT22;18309;43.658;1.312;2023-04-30T05:23:15;16.00;99.90
31729;DHT22;18309;43.658;1.312;2023-04-30T05:25:41;15.90;99.90
31729;DHT22;18309;43.658;1.312;2023-04-30T05:28:07;16.00;99.90
31729;DHT22;18309;43.658;1.312;2023-04-30T05:30:33;15.90;99.90
31729;DHT22;18309;43.658;1.312;2023-04-30T05:32:59;15.90;99.90
31729;DHT22;18309;43.658;1.312;2023-04-30T05:35:24;15.90;99.90
31729;DHT22;18309;43.658;1.312;2023-04-30T05:37:50;15.90;99.90
31729;DHT22;18309;43.658;1.312;2023-04-30T05:40:16;15.90;99.90
31729;DHT22;18309;43.658;1.312;2023-04-30T05:42:42;15.90;99.90
31729;DHT22;18309;43.658;1.312;2023-04-30T05:45:09;15.90;99.90
31729;DHT22;18309;43.658;1.312;2023-04-30T05:47:35;15.90;99.90
31729;DHT22;18309;43.658;1.312;2023-04-30T05:50:00;15.90;99.90
31729;DHT22;18309;43.658;1.312;2023-04-30T05:52:26;16.00;99.90
31729;DHT22;18309;43.658;1.312;2023-04-30T05:54:52;15.90;99.90
31729;DHT22;18309;43.658;1.312;2023-04-30T05:57:18;15.90;99.90
31729;DHT22;18309;43.658;1.312;2023-04-30T05:59:44;15.90;99.90
31729;DHT22;18309;43.658;1.312;2023-04-30T06:02:09;15.90;99.90
31729;DHT22;18309;43.658;1.312;2023-04-30T06:04:35;15.90;99.90
31729;DHT22;18309;43.658;1.312;2023-04-30T06:07:01;15.90;99.90
31729;DHT22;18309;43.658;1.312;2023-04-30T06:09:26;15.90;99.90
31729;DHT22;18309;43.658;1.312;2023-04-30T06:11:52;15.90;99.90
31729;DHT22;18309;43.658;1.312;2023-04-30T06:14:18;15.90;99.90
31729;DHT22;18309;43.658;1.312;2023-04-30T06:16:44;15.90;99.90
31729;DHT22;18309;43.658;1.312;2023-04-30T06:19:13;15.90;99.90
31729;DHT22;18309;43.658;1.312;2023-04-30T06:21:39;15.90;99.90
31729;DHT22;18309;43.658;1.312;2023-04-30T06:24:05;15.70;99.90
31729;DHT22;18309;43.658;1.312;2023-04-30T06:26:31;15.80;99.90
31729;DHT22;18309;43.658;1.312;2023-04-30T06:28:57;15.80;99.90
31729;DHT22;18309;43.658;1.312;2023-04-30T06:31:22;15.70;99.90
31729;DHT22;18309;43.658;1.312;2023-04-30T06:33:48;15.70;99.90
31729;DHT22;18309;43.658;1.312;2023-04-30T06:36:14;15.70;99.90
31729;DHT22;18309;43.658;1.312;2023-04-30T06:38:40;15.60;99.90
31729;DHT22;18309;43.658;1.312;2023-04-30T06:41:07;15.70;99.90
31729;DHT22;18309;43.658;1.312;2023-04-30T06:43:33;15.60;99.90
31729;DHT22;18309;43.658;1.312;2023-04-30T06:45:59;15.70;99.90
31729;DHT22;18309;43.658;1.312;2023-04-30T06:48:25;15.60;99.90
31729;DHT22;18309;43.658;1.312;2023-04-30T06:50:50;15.70;99.90
31729;DHT22;18309;43.658;1.312;2023-04-30T06:53:16;15.70;99.90
31729;DHT22;18309;43.658;1.312;2023-04-30T06:55:44;15.80;99.90
31729;DHT22;18309;43.658;1.312;2023-04-30T06:58:10;15.80;99.90
31729;DHT22;18309;43.658;1.312;2023-04-30T07:00:37;15.80;99.90
31729;DHT22;18309;43.658;1.312;2023-04-30T07:03:02;15.70;99.90
31729;DHT22;18309;43.658;1.312;2023-04-30T07:05:32;15.70;99.90
31729;DHT22;18309;43.658;1.312;2023-04-30T07:08:00;15.70;99.90
31729;DHT22;18309;43.658;1.312;2023-04-30T07:10:26;15.60;99.90
31729;DHT22;18309;43.658;1.312;2023-04-30T07:12:52;15.60;99.90
31729;DHT22;18309;43.658;1.312;2023-04-30T07:15:18;15.60;99.90
31729;DHT22;18309;43.658;1.312;2023-04-30T07:17:44;15.60;99.90
31729;DHT22;18309;43.658;1.312;2023-04-30T07:20:10;15.50;99.90
31729;DHT22;18309;43.658;1.312;2023-04-30T07:22:36;15.50;99.90
31729;DHT22;18309;43.658;1.312;2023-04-30T07:25:02;15.50;99.90
31729;DHT22;18309;43.658;1.312;2023-04-30T07:27:27;15.50;99.90
31729;DHT22;18309;43.658;1.312;2023-04-30T07:29:53;15.40;99.90
31729;DHT22;18309;43.658;1.312;2023-04-30T07:32:20;15.60;99.90
31729;DHT22;18309;43.658;1.312;2023-04-30T07:34:46;15.60;99.90
31729;DHT22;18309;43.658;1.312;2023-04-30T07:37:12;15.50;99.90
31729;DHT22;18309;43.658;1.312;2023-04-30T07:39:38;15.60;99.90
31729;DHT22;18309;43.658;1.312;2023-04-30T07:42:04;15.60;99.90
31729;DHT22;18309;43.658;1.312;2023-04-30T07:44:30;15.20;99.90
31729;DHT22;18309;43.658;1.312;2023-04-30T07:46:56;15.10;99.90
31729;DHT22;18309;43.658;1.312;2023-04-30T07:49:21;15.10;99.90
31729;DHT22;18309;43.658;1.312;2023-04-30T07:51:47;15.00;99.90
31729;DHT22;18309;43.658;1.312;2023-04-30T07:54:13;14.90;99.90
31729;DHT22;18309;43.658;1.312;2023-04-30T07:56:39;14.90;99.90
31729;DHT22;18309;43.658;1.312;2023-04-30T07:59:05;14.80;99.90
31729;DHT22;18309;43.658;1.312;2023-04-30T08:01:31;14.80;99.90
31729;DHT22;18309;43.658;1.312;2023-04-30T08:03:56;14.70;99.90
31729;DHT22;18309;43.658;1.312;2023-04-30T08:06:22;14.70;99.90
31729;DHT22;18309;43.658;1.312;2023-04-30T08:08:48;14.80;99.90
31729;DHT22;18309;43.658;1.312;2023-04-30T08:11:14;14.70;99.90
31729;DHT22;18309;43.658;1.312;2023-04-30T08:13:41;14.70;99.90
31729;DHT22;18309;43.658;1.312;2023-04-30T08:16:07;14.60;99.90
31729;DHT22;18309;43.658;1.312;2023-04-30T08:18:33;14.60;99.90
31729;DHT22;18309;43.658;1.312;2023-04-30T08:20:59;14.60;99.90
31729;DHT22;18309;43.658;1.312;2023-04-30T08:23:26;14.40;99.90
31729;DHT22;18309;43.658;1.312;2023-04-30T08:25:52;14.50;99.90
31729;DHT22;18309;43.658;1.312;2023-04-30T08:28:17;14.50;99.90
31729;DHT22;18309;43.658;1.312;2023-04-30T08:30:43;14.50;99.90
31729;DHT22;18309;43.658;1.312;2023-04-30T08:33:09;14.50;99.90
31729;DHT22;18309;43.658;1.312;2023-04-30T08:35:35;14.50;99.90
31729;DHT22;18309;43.658;1.312;2023-04-30T08:38:01;14.50;99.90
31729;DHT22;18309;43.658;1.312;2023-04-30T08:40:27;14.50;99.90
31729;DHT22;18309;43.658;1.312;2023-04-30T08:43:05;14.50;99.90
31729;DHT22;18309;43.658;1.312;2023-04-30T08:45:31;14.60;99.90
31729;DHT22;18309;43.658;1.312;2023-04-30T08:47:59;14.50;99.90
31729;DHT22;18309;43.658;1.312;2023-04-30T08:50:26;14.50;99.90
31729;DHT22;18309;43.658;1.312;2023-04-30T08:52:52;14.50;99.90
31729;DHT22;18309;43.658;1.312;2023-04-30T08:55:17;14.50;99.90
31729;DHT22;18309;43.658;1.312;2023-04-30T08:57:43;14.40;99.90
31729;DHT22;18309;43.658;1.312;2023-04-30T09:00:09;14.40;99.90
31729;DHT22;18309;43.658;1.312;2023-04-30T09:02:39;14.40;99.90
31729;DHT22;18309;43.658;1.312;2023-04-30T09:05:10;14.40;99.90
31729;DHT22;18309;43.658;1.312;2023-04-30T09:07:41;14.50;99.90
31729;DHT22;18309;43.658;1.312;2023-04-30T09:10:18;14.40;99.90
31729;DHT22;18309;43.658;1.312;2023-04-30T09:13:01;14.40;99.90
31729;DHT22;18309;43.658;1.312;2023-04-30T09:15:28;14.40;99.90
31729;DHT22;18309;43.658;1.312;2023-04-30T09:18:16;14.40;99.90
31729;DHT22;18309;43.658;1.312;2023-04-30T09:21:00;14.40;99.90
31729;DHT22;18309;43.658;1.312;2023-04-30T09:23:30;14.40;99.90
31729;DHT22;18309;43.658;1.312;2023-04-30T09:25:55;14.50;99.90
31729;DHT22;18309;43.658;1.312;2023-04-30T09:28:22;14.40;99.90
31729;DHT22;18309;43.658;1.312;2023-04-30T09:30:50;14.40;99.90
31729;DHT22;18309;43.658;1.312;2023-04-30T09:33:17;14.40;99.90
31729;DHT22;18309;43.658;1.312;2023-04-30T09:35:43;14.40;99.90
31729;DHT22;18309;43.658;1.312;2023-04-30T09:38:28;14.40;99.90
31729;DHT22;18309;43.658;1.312;2023-04-30T09:40:56;14.40;99.90
31729;DHT22;18309;43.658;1.312;2023-04-30T09:43:22;14.40;99.90
31729;DHT22;18309;43.658;1.312;2023-04-30T09:45:48;14.40;99.90
31729;DHT22;18309;43.658;1.312;2023-04-30T09:48:20;14.50;99.90
31729;DHT22;18309;43.658;1.312;2023-04-30T09:50:45;14.40;99.90
31729;DHT22;18309;43.658;1.312;2023-04-30T09:53:13;14.40;99.90
31729;DHT22;18309;43.658;1.312;2023-04-30T09:55:44;14.30;99.90
31729;DHT22;18309;43.658;1.312;2023-04-30T09:58:10;14.30;99.90
31729;DHT22;18309;43.658;1.312;2023-04-30T10:00:37;14.30;99.90
31729;DHT22;18309;43.658;1.312;2023-04-30T10:03:12;14.30;99.90
31729;DHT22;18309;43.658;1.312;2023-04-30T10:05:45;14.30;99.90
31729;DHT22;18309;43.658;1.312;2023-04-30T10:10:48;14.40;99.90
31729;DHT22;18309;43.658;1.312;2023-04-30T10:13:18;14.50;99.90
31729;DHT22;18309;43.658;1.312;2023-04-30T10:15:50;14.50;99.90
31729;DHT22;18309;43.658;1.312;2023-04-30T10:18:22;14.50;99.90
31729;DHT22;18309;43.658;1.312;2023-04-30T10:20:53;14.60;99.90
31729;DHT22;18309;43.658;1.312;2023-04-30T10:23:20;14.60;99.90
31729;DHT22;18309;43.658;1.312;2023-04-30T10:25:46;14.70;99.90
31729;DHT22;18309;43.658;1.312;2023-04-30T10:28:13;14.70;99.90
31729;DHT22;18309;43.658;1.312;2023-04-30T10:30:40;14.70;99.90
31729;DHT22;18309;43.658;1.312;2023-04-30T10:33:22;14.60;99.90
31729;DHT22;18309;43.658;1.312;2023-04-30T10:35:55;14.70;99.90
31729;DHT22;18309;43.658;1.312;2023-04-30T10:38:27;14.70;99.90
31729;DHT22;18309;43.658;1.312;2023-04-30T10:40:59;14.80;99.90
31729;DHT22;18309;43.658;1.312;2023-04-30T10:43:31;14.80;99.90
31729;DHT22;18309;43.658;1.312;2023-04-30T10:45:59;14.80;99.90
31729;DHT22;18309;43.658;1.312;2023-04-30T10:48:27;14.80;99.90
31729;DHT22;18309;43.658;1.312;2023-04-30T10:50:57;14.90;99.90
31729;DHT22;18309;43.658;1.312;2023-04-30T10:53:23;14.90;99.90
31729;DHT22;18309;43.658;1.312;2023-04-30T10:55:57;14.90;99.90
31729;DHT22;18309;43.658;1.312;2023-04-30T10:58:25;15.00;99.90
31729;DHT22;18309;43.658;1.312;2023-04-30T11:01:10;15.10;99.90
31729;DHT22;18309;43.658;1.312;2023-04-30T11:03:37;15.10;99.90
31729;DHT22;18309;43.658;1.312;2023-04-30T11:06:14;15.00;99.90
31729;DHT22;18309;43.658;1.312;2023-04-30T11:08:44;14.90;99.90
31729;DHT22;18309;43.658;1.312;2023-04-30T11:11:10;15.00;99.90
31729;DHT22;18309;43.658;1.312;2023-04-30T11:16:06;15.00;99.90
31729;DHT22;18309;43.658;1.312;2023-04-30T11:18:32;15.00;99.90
31729;DHT22;18309;43.658;1.312;2023-04-30T11:20:58;15.00;99.90
31729;DHT22;18309;43.658;1.312;2023-04-30T11:23:25;15.20;99.90
31729;DHT22;18309;43.658;1.312;2023-04-30T11:25:53;15.10;99.90
31729;DHT22;18309;43.658;1.312;2023-04-30T11:28:24;15.10;99.90
31729;DHT22;18309;43.658;1.312;2023-04-30T11:30:57;15.20;99.90
31729;DHT22;18309;43.658;1.312;2023-04-30T11:33:28;15.30;99.90
31729;DHT22;18309;43.658;1.312;2023-04-30T11:35:56;15.30;99.90
31729;DHT22;18309;43.658;1.312;2023-04-30T11:40:51;15.50;99.90
31729;DHT22;18309;43.658;1.312;2023-04-30T11:46:10;15.70;99.90
31729;DHT22;18309;43.658;1.312;2023-04-30T11:48:38;15.70;99.90
31729;DHT22;18309;43.658;1.312;2023-04-30T11:53:39;16.00;99.90
31729;DHT22;18309;43.658;1.312;2023-04-30T11:56:06;16.00;99.90
31729;DHT22;18309;43.658;1.312;2023-04-30T11:58:36;16.10;99.90
31729;DHT22;18309;43.658;1.312;2023-04-30T12:01:04;16.10;99.90
31729;DHT22;18309;43.658;1.312;2023-04-30T12:03:31;16.10;99.90
31729;DHT22;18309;43.658;1.312;2023-04-30T12:05:57;16.10;99.90
31729;DHT22;18309;43.658;1.312;2023-04-30T12:08:23;16.20;99.90
31729;DHT22;18309;43.658;1.312;2023-04-30T12:10:49;16.20;99.90
31729;DHT22;18309;43.658;1.312;2023-04-30T12:13:14;16.30;99.90
31729;DHT22;18309;43.658;1.312;2023-04-30T12:15:41;16.40;99.90
31729;DHT22;18309;43.658;1.312;2023-04-30T12:18:11;16.60;99.90
31729;DHT22;18309;43.658;1.312;2023-04-30T12:20:38;16.80;99.90
31729;DHT22;18309;43.658;1.312;2023-04-30T12:23:05;16.70;99.90
31729;DHT22;18309;43.658;1.312;2023-04-30T12:25:42;16.90;99.90
31729;DHT22;18309;43.658;1.312;2023-04-30T12:28:09;17.00;99.90
31729;DHT22;18309;43.658;1.312;2023-04-30T12:30:35;17.00;99.90
31729;DHT22;18309;43.658;1.312;2023-04-30T12:33:01;17.10;99.90
31729;DHT22;18309;43.658;1.312;2023-04-30T12:35:29;17.20;99.90
31729;DHT22;18309;43.658;1.312;2023-04-30T12:38:06;17.40;99.90
31729;DHT22;18309;43.658;1.312;2023-04-30T12:40:32;17.50;99.90
31729;DHT22;18309;43.658;1.312;2023-04-30T12:43:06;17.50;99.90
31729;DHT22;18309;43.658;1.312;2023-04-30T12:45:51;17.60;99.90
31729;DHT22;18309;43.658;1.312;2023-04-30T12:48:19;17.70;99.90
31729;DHT22;18309;43.658;1.312;2023-04-30T12:50:57;17.90;99.90
31729;DHT22;18309;43.658;1.312;2023-04-30T12:53:23;17.80;99.90
31729;DHT22;18309;43.658;1.312;2023-04-30T12:56:08;17.80;99.90
31729;DHT22;18309;43.658;1.312;2023-04-30T12:58:34;17.80;99.90
31729;DHT22;18309;43.658;1.312;2023-04-30T13:01:00;17.80;99.90
31729;DHT22;18309;43.658;1.312;2023-04-30T13:03:26;17.90;99.90
31729;DHT22;18309;43.658;1.312;2023-04-30T13:05:51;17.90;99.90
31729;DHT22;18309;43.658;1.312;2023-04-30T13:08:19;18.00;99.90
31729;DHT22;18309;43.658;1.312;2023-04-30T13:10:46;18.00;99.90
31729;DHT22;18309;43.658;1.312;2023-04-30T13:13:13;18.10;99.90
31729;DHT22;18309;43.658;1.312;2023-04-30T13:15:39;18.30;99.90
31729;DHT22;18309;43.658;1.312;2023-04-30T13:18:06;19.10;99.90
31729;DHT22;18309;43.658;1.312;2023-04-30T13:20:35;19.10;99.90
31729;DHT22;18309;43.658;1.312;2023-04-30T13:23:01;18.90;99.90
31729;DHT22;18309;43.658;1.312;2023-04-30T13:25:27;18.80;99.90
31729;DHT22;18309;43.658;1.312;2023-04-30T13:27:52;19.00;99.90
31729;DHT22;18309;43.658;1.312;2023-04-30T13:30:18;19.00;99.90
31729;DHT22;18309;43.658;1.312;2023-04-30T13:32:44;18.80;99.90
31729;DHT22;18309;43.658;1.312;2023-04-30T13:35:11;18.70;99.90
31729;DHT22;18309;43.658;1.312;2023-04-30T13:37:37;19.00;99.90
31729;DHT22;18309;43.658;1.312;2023-04-30T13:40:07;19.00;99.90
31729;DHT22;18309;43.658;1.312;2023-04-30T13:42:35;19.00;99.90
31729;DHT22;18309;43.658;1.312;2023-04-30T13:45:01;19.20;99.90
31729;DHT22;18309;43.658;1.312;2023-04-30T13:47:26;19.40;99.90
31729;DHT22;18309;43.658;1.312;2023-04-30T13:49:52;19.50;99.90
31729;DHT22;18309;43.658;1.312;2023-04-30T13:52:18;19.40;99.90
31729;DHT22;18309;43.658;1.312;2023-04-30T13:54:43;19.20;99.90
31729;DHT22;18309;43.658;1.312;2023-04-30T13:57:09;19.20;99.90
31729;DHT22;18309;43.658;1.312;2023-04-30T13:59:35;19.40;99.90
31729;DHT22;18309;43.658;1.312;2023-04-30T14:02:01;20.50;99.90
31729;DHT22;18309;43.658;1.312;2023-04-30T14:04:26;21.60;99.90
31729;DHT22;18309;43.658;1.312;2023-04-30T14:06:52;21.30;99.90
31729;DHT22;18309;43.658;1.312;2023-04-30T14:09:21;21.50;99.90
31729;DHT22;18309;43.658;1.312;2023-04-30T14:11:46;22.50;98.60
31729;DHT22;18309;43.658;1.312;2023-04-30T14:14:12;22.50;98.70
31729;DHT22;18309;43.658;1.312;2023-04-30T14:16:38;21.70;99.00
31729;DHT22;18309;43.658;1.312;2023-04-30T14:19:04;21.00;99.90
31729;DHT22;18309;43.658;1.312;2023-04-30T14:21:30;20.40;99.90
31729;DHT22;18309;43.658;1.312;2023-04-30T14:23:56;20.40;99.90
31729;DHT22;18309;43.658;1.312;2023-04-30T14:26:21;20.30;99.90
31729;DHT22;18309;43.658;1.312;2023-04-30T14:28:47;20.00;99.90
31729;DHT22;18309;43.658;1.312;2023-04-30T14:31:13;20.10;99.90
31729;DHT22;18309;43.658;1.312;2023-04-30T14:33:38;20.10;99.90
31729;DHT22;18309;43.658;1.312;2023-04-30T14:36:05;20.20;99.90
31729;DHT22;18309;43.658;1.312;2023-04-30T14:38:31;20.50;99.90
31729;DHT22;18309;43.658;1.312;2023-04-30T14:40:56;20.60;99.90
31729;DHT22;18309;43.658;1.312;2023-04-30T14:43:22;20.50;99.90
31729;DHT22;18309;43.658;1.312;2023-04-30T14:45:48;20.40;99.90
31729;DHT22;18309;43.658;1.312;2023-04-30T14:48:14;20.40;99.90
31729;DHT22;18309;43.658;1.312;2023-04-30T14:50:40;20.60;99.90
31729;DHT22;18309;43.658;1.312;2023-04-30T14:53:06;20.80;99.40
31729;DHT22;18309;43.658;1.312;2023-04-30T14:55:37;20.40;99.40
31729;DHT22;18309;43.658;1.312;2023-04-30T14:58:03;20.60;99.60
31729;DHT22;18309;43.658;1.312;2023-04-30T15:00:30;20.60;99.20
31729;DHT22;18309;43.658;1.312;2023-04-30T15:02:56;20.40;99.40
31729;DHT22;18309;43.658;1.312;2023-04-30T15:05:22;20.40;99.60
31729;DHT22;18309;43.658;1.312;2023-04-30T15:07:47;20.50;99.90
31729;DHT22;18309;43.658;1.312;2023-04-30T15:10:13;20.60;99.70
31729;DHT22;18309;43.658;1.312;2023-04-30T15:12:39;20.40;99.00
31729;DHT22;18309;43.658;1.312;2023-04-30T15:15:06;20.30;99.20
31729;DHT22;18309;43.658;1.312;2023-04-30T15:17:31;20.50;98.90
31729;DHT22;18309;43.658;1.312;2023-04-30T15:20:05;20.50;98.30
31729;DHT22;18309;43.658;1.312;2023-04-30T15:22:32;20.60;98.50
31729;DHT22;18309;43.658;1.312;2023-04-30T15:24:58;21.00;98.30
31729;DHT22;18309;43.658;1.312;2023-04-30T15:27:26;21.10;96.90
31729;DHT22;18309;43.658;1.312;2023-04-30T15:29:52;21.00;96.80
31729;DHT22;18309;43.658;1.312;2023-04-30T15:32:18;20.80;97.50
31729;DHT22;18309;43.658;1.312;2023-04-30T15:34:44;20.70;97.80
31729;DHT22;18309;43.658;1.312;2023-04-30T15:37:10;20.50;99.90
31729;DHT22;18309;43.658;1.312;2023-04-30T15:39:35;20.10;99.90
31729;DHT22;18309;43.658;1.312;2023-04-30T15:42:01;19.80;99.90
31729;DHT22;18309;43.658;1.312;2023-04-30T15:44:28;19.40;99.90
31729;DHT22;18309;43.658;1.312;2023-04-30T15:46:53;18.30;99.90
31729;DHT22;18309;43.658;1.312;2023-04-30T15:49:20;17.70;99.90
31729;DHT22;18309;43.658;1.312;2023-04-30T15:51:47;17.90;99.90
31729;DHT22;18309;43.658;1.312;2023-04-30T15:54:13;18.50;99.90
31729;DHT22;18309;43.658;1.312;2023-04-30T15:56:39;18.80;99.90
31729;DHT22;18309;43.658;1.312;2023-04-30T15:59:05;19.20;99.90